Nearby METAR Reports

 

KSJC - San Jose, California, USA
Distance from station: NO 14km
aktuell: 21/08/2018 18:53
geschlossene Wolkendecke
geschlossene Wolkendecke
 Wind von SO
Wind: SO 9 km/h
Temperatur: 17°C
Taupunkt: 12°C
Luftfeuchte: 73%
Luftdruck: 1015.9 hPa
Clouds: geschlossene Wolkendecke
Visibility: 14 km
Cloud details: Few Clouds 183 m
stark bewölkt 518 m
geschlossene Wolkendecke 610 m
2018/08/21 16:53 KSJC 211653Z 13005KT 9SM FEW006 BKN017 OVC020 17/12 A3000 RMK AO2 SLP157 T01670117
KNUQ - Moffett Nas/Mtn, California, USA
Distance from station: N 14km
aktuell: 21/08/2018 18:56
geschlossene Wolkendecke
geschlossene Wolkendecke
 Wind von calm
Wind: Windstill
Temperatur: 17°C
Taupunkt: 12°C
Luftfeuchte: 73%
Luftdruck: 1015.9 hPa
Clouds: geschlossene Wolkendecke
Visibility: 14 km
Cloud details: geschlossene Wolkendecke 640 m
2018/08/21 16:56 KNUQ 211656Z 00000KT 9SM OVC021 17/12 A3000 RMK AO2 SLP162 T01670117 $
 
KPAO - Palo Alto, California, USA
Distance from station: NNW 23km
aktuell: 21/08/2018 18:47
geschlossene Wolkendecke
geschlossene Wolkendecke
 Wind von varies
Wind: varies 7 km/h
Temperatur: 26°C
Taupunkt: 13°C
Luftfeuchte: 45%
Luftdruck: 1016.3 hPa
Clouds: geschlossene Wolkendecke
Visibility: 16 km
Cloud details: geschlossene Wolkendecke 579 m
2018/08/21 16:47 KPAO 211647Z VRB04KT 10SM OVC019 26/13 A3001
KRHV - San Jose/Reid, California, USA
Distance from station: ONO 19km
aktuell: 21/08/2018 19:51
geschlossene Wolkendecke
geschlossene Wolkendecke
 Wind von SSW
Wind: SSW 9 km/h
Temperatur: 16°C
Taupunkt: 12°C
Luftfeuchte: 77%
Luftdruck: 1015.6 hPa
Clouds: geschlossene Wolkendecke
Visibility: 11 km
Cloud details: stark bewölkt 488 m
geschlossene Wolkendecke 640 m
2018/08/21 17:51 KRHV 211751Z 21005KT 7SM BKN016 OVC021 16/12 A2999
 
KOAK - Oakland, California, USA
Distance from station: NNW 50km
aktuell: 21/08/2018 18:53
geschlossene Wolkendecke
geschlossene Wolkendecke
 Wind von W
Wind: W 13 km/h
Temperatur: 16°C
Taupunkt: 12°C
Luftfeuchte: 77%
Luftdruck: 1015.6 hPa
Clouds: geschlossene Wolkendecke
Visibility: 16 km
Cloud details: geschlossene Wolkendecke 427 m
2018/08/21 16:53 KOAK 211653Z 26007KT 10SM OVC014 16/12 A2999 RMK AO2 SLP156 T01560122
KSQL - San Carlos Airpo, California, USA
Distance from station: NW 34km
aktuell: 21/08/2018 18:58
geschlossene Wolkendecke
geschlossene Wolkendecke
 Wind von varies
Wind: varies 6 km/h
Temperatur: 16°C
Taupunkt: 13°C
Luftfeuchte: 83%
Luftdruck: 1015.9 hPa
Clouds: geschlossene Wolkendecke
Visibility: 16 km
Cloud details: geschlossene Wolkendecke 457 m
2018/08/21 16:58 KSQL 211658Z VRB03KT 10SM OVC015 16/13 A3000
 
KSFO - San Francisco, California, USA
Distance from station: NW 49km
aktuell: 21/08/2018 18:56
geschlossene Wolkendecke
geschlossene Wolkendecke
 Wind von W
Wind: W 11 km/h
Temperatur: 17°C
Taupunkt: 12°C
Luftfeuchte: 73%
Luftdruck: 1015.6 hPa
Clouds: geschlossene Wolkendecke
Visibility: 16 km
Cloud details: Few Clouds 244 m
geschlossene Wolkendecke 457 m
2018/08/21 16:56 KSFO 211656Z 27006KT 10SM FEW008 OVC015 17/12 A2999 RMK AO2 SLP154 T01670117
KE16 - San Martin, California, USA
Distance from station: OSO 43km
aktuell: 21/08/2018 19:20
geschlossene Wolkendecke
geschlossene Wolkendecke
 Wind von SW
Wind: SW 7 km/h
Temperatur: 15°C
Taupunkt: 11°C
Luftfeuchte: 77%
Luftdruck: 1016.9 hPa
Clouds: geschlossene Wolkendecke
Visibility: 16 km
Cloud details: geschlossene Wolkendecke 396 m
2018/08/21 17:20 KE16 211720Z AUTO 23004KT 10SM OVC013 15/11 A3003 RMK AO2
 
KWVI - Watsonville, California, USA
Distance from station: SSO 44km
aktuell: 21/08/2018 18:53
geschlossene Wolkendecke
geschlossene Wolkendecke
 Wind von calm
Wind: Windstill
Temperatur: 14°C
Taupunkt: 12°C
Luftfeuchte: 88%
Luftdruck: 1016.6 hPa
Clouds: geschlossene Wolkendecke
Visibility: 16 km
Cloud details: geschlossene Wolkendecke 305 m
2018/08/21 16:53 KWVI 211653Z AUTO 00000KT 10SM OVC010 14/12 A3002 RMK AO2 SLP164 T01440117
KHAF - Half Moon Bay, California, USA
Distance from station: WNW 50km
aktuell: 21/08/2018 19:40
Mist, stark bewölkt
Mist, stark bewölkt
 Wind von S
Wind: S 9 km/h
Temperatur: 15°C
Taupunkt: 14°C
Luftfeuchte: 94%
Luftdruck: 1016.3 hPa
Zusammenfassung: Mist
Clouds: stark bewölkt
Visibility: 8 km
Cloud details: stark bewölkt 427 m
2018/08/21 17:40 KHAF 211740Z AUTO 17005KT 5SM BR BKN014 15/14 A3001 RMK AO2
 
KHWD - Hayward, California, USA
Distance from station: N 44km
aktuell: 21/08/2018 18:54
geschlossene Wolkendecke
geschlossene Wolkendecke
 Wind von WSW
Wind: WSW 11 km/h
Temperatur: 17°C
Taupunkt: 12°C
Luftfeuchte: 73%
Luftdruck: 1015.6 hPa
Clouds: geschlossene Wolkendecke
Visibility: 16 km
Cloud details: stark bewölkt 457 m
geschlossene Wolkendecke 640 m
2018/08/21 16:54 KHWD 211654Z 25006KT 10SM BKN015 OVC021 17/12 A2999 RMK AO2 SLP166 T01670122
KLVK - Livermore, California, USA
Distance from station: NNO 51km
aktuell: 21/08/2018 18:53
geschlossene Wolkendecke
geschlossene Wolkendecke
 Wind von W
Wind: W 13 km/h
Temperatur: 16°C
Taupunkt: 12°C
Luftfeuchte: 77%
Luftdruck: 1015.2 hPa
Clouds: geschlossene Wolkendecke
Visibility: 16 km
Cloud details: geschlossene Wolkendecke 457 m
2018/08/21 16:53 KLVK 211653Z 27007KT 10SM OVC015 16/12 A2998 RMK AO2 SLP150 T01610117